Latest Weather Observations for Meekatharra

IDW60801

Issued at 7:35 pm WST Friday 1 August 2014 (issued every 30 minutes, with the page automatically refreshed every 10 minutes)

About weather observations | Map of weather stations | Latest weather observations for WA | Other Formats
Station Details ID: 007045 Name: MEEKATHARRA AIRPORT Lat: -26.61 Lon: 118.54 Height: 517.0 m
Data from the previous 72 hours. | See also: Recent months at Meekatharra
Date/Time
WST
Temp
°C
App
Temp
°C
Dew
Point
Rel
Hum
%
Delta-T
°C
Wind Press
QNH
hPa
Press
MSL
hPa
Rain
since 9 am
mm
Dir
 
Spd
km/h
Gust
km/h
Spd
kts
Gust
kts
01/07:30pm 16.1 11.5 -1.3 30 7.4 E 13 15 7 8 1023.5 - 0.0
01/07:00pm 16.8 12.6 -1.1 29 7.7 E 11 13 6 7 1023.2 - 0.0
01/06:30pm 17.6 13.9 0.0 30 7.8 E 9 11 5 6 1022.9 - 0.0
01/06:00pm 18.9 15.5 -0.4 27 8.6 E 7 9 4 5 1022.6 1021.8 0.0
01/05:30pm 20.5 16.2 -1.5 22 9.7 E 11 13 6 7 1022.3 - 0.0
01/05:00pm 21.1 16.4 -1.8 21 10.1 E 13 20 7 11 1021.9 - 0.0
01/04:30pm 21.6 17.2 -2.4 20 10.5 E 11 20 6 11 1021.8 - 0.0
01/04:00pm 21.6 17.3 -1.5 21 10.3 E 11 20 6 11 1021.8 - 0.0
01/03:30pm 21.6 16.6 -1.5 21 10.3 ESE 15 22 8 12 1021.7 - 0.0
01/03:00pm 21.9 16.9 -0.9 22 10.3 E 15 24 8 13 1021.7 1020.9 0.0
01/02:30pm 21.3 17.3 0.5 25 9.6 ENE 11 17 6 9 1021.9 - 0.0
01/02:00pm 21.2 16.0 0.0 24 9.7 E 17 24 9 13 1022.0 - 0.0
01/01:30pm 21.0 16.6 0.3 25 9.5 ENE 13 20 7 11 1022.4 - 0.0
01/01:00pm 20.2 15.0 0.2 26 9.1 E 17 24 9 13 1022.8 - 0.0
01/12:30pm 19.5 14.0 0.7 28 8.6 ENE 19 24 10 13 1023.2 - 0.0
01/12:00pm 18.9 13.8 1.0 30 8.2 NE 17 26 9 14 1023.7 1022.9 0.0
01/11:30am 18.1 12.5 1.2 32 7.7 E 20 24 11 13 1024.1 - 0.0
01/11:00am 17.4 11.0 1.0 33 7.4 E 24 35 13 19 1024.5 - 0.0
01/10:30am 16.9 10.5 1.2 34 7.1 ENE 24 35 13 19 1024.8 - 0.0
01/10:00am 15.9 9.1 1.1 36 6.6 E 26 35 14 19 1024.9 - 0.0
01/09:30am 14.8 8.8 1.3 40 6.0 ENE 22 32 12 17 1025.0 - 0.0
01/09:00am 13.3 7.7 0.9 42 5.4 ENE 20 30 11 16 1024.8 1024.0 0.0
01/08:30am 11.5 5.8 0.7 47 4.6 E 20 28 11 15 1024.6 - 0.0
01/08:00am 10.0 4.5 0.7 52 3.9 E 19 26 10 14 1024.4 - 0.0
01/07:30am 9.0 3.9 0.6 55 3.5 E 17 24 9 13 1024.1 - 0.0
01/07:00am 8.1 3.4 0.8 60 3.0 ESE 15 20 8 11 1023.9 - 0.0
01/06:30am 8.5 3.4 0.8 58 3.2 E 17 22 9 12 1023.5 - 0.0
01/06:00am 8.8 3.3 0.9 57 3.3 E 19 22 10 12 1023.3 1022.5 0.0
01/05:30am 8.8 4.1 0.9 57 3.3 E 15 19 8 10 1023.2 - 0.0
01/05:00am 8.7 4.4 1.0 58 3.2 E 13 20 7 11 1023.1 - 0.0
01/04:30am 9.1 4.8 1.3 58 3.3 E 13 19 7 10 1022.9 - 0.0
01/04:00am 9.6 5.4 1.4 56 3.5 E 13 15 7 8 1022.9 - 0.0
01/03:30am 10.1 4.7 1.5 55 3.7 E 19 22 10 12 1023.0 - 0.0
01/03:00am 10.2 5.9 1.3 54 3.8 ESE 13 19 7 10 1023.0 1022.2 0.0
01/02:30am 10.3 6.1 1.4 54 3.8 ESE 13 17 7 9 1023.0 - 0.0
01/02:00am 10.5 5.9 1.7 54 3.8 ESE 15 19 8 10 1023.2 - 0.0
01/01:30am 10.7 6.1 1.7 53 3.9 ESE 15 20 8 11 1023.3 - 0.0
01/01:00am 10.9 6.7 1.7 53 4.0 ESE 13 19 7 10 1023.5 - 0.0
01/12:30am 11.6 7.0 1.5 50 4.4 SE 15 20 8 11 1023.5 - 0.0
01/12:00am 12.1 7.0 1.0 46 4.8 SE 17 20 9 11 1023.5 1022.7 0.0
 
Date/Time
WST
Temp
°C
App
Temp
°C
Dew
Point
Rel
Hum
%
Delta-T
°C
Wind Press
QNH
hPa
Press
MSL
hPa
Rain
since 9 am
mm
Dir
 
Spd
km/h
Gust
km/h
Spd
kts
Gust
kts
31/11:30pm 12.6 7.6 1.1 45 5.0 SE 17 22 9 12 1023.6 - 0.0
31/11:00pm 13.1 8.4 0.9 43 5.3 SSE 15 19 8 10 1023.6 - 0.0
31/10:30pm 13.8 9.5 0.7 41 5.7 SSE 13 17 7 9 1023.5 - 0.0
31/10:00pm 13.8 9.0 0.4 40 5.8 SSE 15 17 8 9 1023.5 - 0.0
31/09:30pm 13.8 9.0 0.1 39 5.9 SSE 15 19 8 10 1023.3 - 0.0
31/09:00pm 12.9 8.5 0.3 42 5.4 SSE 13 15 7 8 1023.2 1022.8 0.0
31/08:30pm 13.2 9.0 -0.9 37 5.9 SSE 11 13 6 7 1023.1 - 0.0
31/08:00pm 14.1 9.9 -0.8 36 6.3 SSE 11 13 6 7 1022.8 - 0.0
31/07:30pm 15.0 10.8 -1.0 33 6.8 SSE 11 13 6 7 1022.5 - 0.0
31/07:00pm 15.6 12.1 1.0 37 6.5 SSE 9 11 5 6 1022.3 - 0.0
31/06:30pm 16.8 13.0 2.0 37 6.8 SSE 11 11 6 6 1021.9 - 0.0
31/06:00pm 18.4 14.3 -0.3 28 8.3 SE 11 17 6 9 1021.6 1021.2 0.0
31/05:30pm 19.5 14.9 -0.8 25 9.0 SE 13 17 7 9 1021.4 - 0.0
31/05:00pm 20.3 16.0 -1.9 22 9.7 SE 11 15 6 8 1021.2 - 0.0
31/04:30pm 20.9 16.2 -1.8 21 10.0 SSE 13 20 7 11 1021.1 - 0.0
31/04:00pm 21.4 16.7 -1.5 21 10.2 SSE 13 22 7 12 1021.1 - 0.0
31/03:30pm 21.9 17.7 -0.9 22 10.3 SE 11 20 6 11 1021.1 - 0.0
31/03:00pm 21.8 17.7 -0.3 23 10.1 SE 11 17 6 9 1021.1 1020.7 0.0
31/02:30pm 21.5 18.3 0.9 25 9.6 E 7 11 4 6 1021.3 - 0.0
31/02:00pm 20.2 16.0 1.6 29 8.7 ESE 13 19 7 10 1021.4 - 0.0
31/01:30pm 20.6 16.5 2.3 29 8.7 SE 13 20 7 11 1021.5 - 0.0
31/01:00pm 19.7 16.2 3.3 33 7.9 ESE 11 22 6 12 1022.5 - 0.0
31/12:30pm 19.4 15.6 3.7 35 7.6 SE 13 20 7 11 1023.1 - 0.0
31/12:00pm 18.3 14.1 4.0 38 6.9 ESE 15 20 8 11 1023.4 1023.0 0.0
31/11:30am 17.7 13.3 4.6 42 6.4 ESE 17 26 9 14 1023.6 - 0.0
31/11:00am 17.4 13.0 4.7 43 6.2 ESE 17 22 9 12 1024.0 - 0.0
31/10:30am 16.6 11.8 4.6 45 5.8 SE 19 30 10 16 1024.5 - 0.0
31/10:00am 15.9 10.5 4.4 46 5.5 SE 22 30 12 16 1024.6 - 0.0
31/09:30am 15.1 10.3 4.9 50 4.9 SE 19 26 10 14 1024.6 - 0.0
31/09:00am 13.8 8.8 4.7 54 4.3 ESE 20 30 11 16 1024.5 1024.1 0.0
31/08:30am 12.9 8.1 4.9 58 3.8 ESE 19 28 10 15 1024.1 - 0.0
31/08:00am 11.7 8.0 4.4 61 3.4 SW 13 19 7 10 1024.0 - 0.0
31/07:30am 10.3 7.7 4.2 66 2.8 SW 7 9 4 5 1023.7 - 0.0
31/07:00am 8.5 5.4 3.8 72 2.1 SW 9 11 5 6 1023.4 - 0.0
31/06:30am 8.7 5.6 3.5 70 2.3 SW 9 13 5 7 1023.0 - 0.0
31/06:00am 8.3 5.1 3.3 71 2.2 SW 9 13 5 7 1022.8 1022.4 0.0
31/05:30am 8.7 5.2 3.3 69 2.4 SW 11 11 6 6 1022.5 - 0.0
31/05:00am 9.8 6.2 3.0 62 3.0 SW 11 13 6 7 1022.4 - 0.0
31/04:30am 10.3 6.7 3.1 61 3.2 SW 11 15 6 8 1022.3 - 0.0
31/04:00am 11.0 6.7 3.2 58 3.5 SW 15 19 8 10 1022.1 - 0.0
31/03:30am 11.2 7.3 3.2 58 3.6 SW 13 19 7 10 1022.4 - 0.0
31/03:00am 11.7 7.6 2.5 53 4.1 WSW 13 20 7 11 1022.5 1022.0 0.0
31/02:30am 11.2 7.5 2.1 53 4.0 WSW 11 13 6 7 1022.3 - 0.0
31/02:00am 11.6 7.3 0.9 48 4.6 WSW 13 17 7 9 1022.3 - 0.0
31/01:30am 11.5 7.5 0.4 46 4.7 WSW 11 15 6 8 1022.5 - 0.0
31/01:00am 12.4 7.9 -0.2 42 5.3 WSW 13 15 7 8 1022.6 - 0.0
31/12:30am 13.0 8.9 0.1 41 5.5 WSW 11 13 6 7 1022.7 - 0.0
31/12:00am 13.7 9.3 0.6 40 5.7 WSW 13 15 7 8 1022.6 1022.2 0.0
 
Date/Time
WST
Temp
°C
App
Temp
°C
Dew
Point
Rel
Hum
%
Delta-T
°C
Wind Press
QNH
hPa
Press
MSL
hPa
Rain
since 9 am
mm
Dir
 
Spd
km/h
Gust
km/h
Spd
kts
Gust
kts
30/11:30pm 14.3 9.9 0.2 38 6.1 WSW 13 15 7 8 1022.5 - 0.0
30/11:00pm 15.0 10.5 -0.3 35 6.6 WSW 13 15 7 8 1022.4 - 0.0
30/10:30pm 15.0 10.9 0.0 36 6.5 WSW 11 13 6 7 1022.4 - 0.0
30/10:00pm 15.3 11.2 -0.2 34 6.7 WSW 11 13 6 7 1022.0 - 0.0
30/09:30pm 16.1 11.6 -0.5 32 7.2 WSW 13 15 7 8 1021.9 - 0.0
30/09:00pm 16.5 12.7 -0.5 31 7.4 WSW 9 11 5 6 1022.0 1021.6 0.0
30/08:30pm 16.7 13.1 0.5 33 7.2 WSW 9 9 5 5 1021.8 - 0.0
30/08:00pm 18.3 14.2 -0.5 28 8.3 WSW 11 13 6 7 1021.5 - 0.0
30/07:30pm 18.9 15.1 -0.8 26 8.7 WSW 9 11 5 6 1021.4 - 0.0
30/07:00pm 19.7 16.1 0.7 28 8.7 WSW 9 11 5 6 1021.2 - 0.0
30/06:30pm 20.8 17.3 1.0 26 9.2 WSW 9 13 5 7 1021.0 - 0.0
30/06:00pm 22.0 18.4 0.5 24 10.0 W 9 13 5 7 1020.8 1020.3 0.0
30/05:30pm 23.2 17.8 -1.7 19 11.2 W 17 24 9 13 1020.7 - 0.0
30/05:00pm 24.0 19.0 -1.5 18 11.6 W 15 22 8 12 1020.7 - 0.0
30/04:30pm 24.1 18.9 -2.6 17 11.9 WSW 15 24 8 13 1020.7 - 0.0
30/04:00pm 24.8 19.3 -1.8 17 12.1 WNW 17 22 9 12 1020.7 - 0.0
30/03:30pm 25.1 20.3 -2.4 16 12.4 WNW 13 20 7 11 1020.8 - 0.0
30/03:00pm 24.5 18.3 -3.0 16 12.2 SW 20 28 11 15 1020.9 1020.4 0.0
30/02:30pm 24.5 20.2 -1.6 17 11.9 WNW 11 24 6 13 1020.8 - 0.0
30/02:00pm 25.2 20.8 -2.1 16 12.4 W 11 19 6 10 1020.9 - 0.0
30/01:30pm 24.7 19.9 -2.5 16 12.2 WNW 13 26 7 14 1021.3 - 0.0
30/01:00pm 24.2 19.6 -1.1 18 11.6 NW 13 22 7 12 1021.7 - 0.0
30/12:30pm 23.8 19.5 -1.6 18 11.5 NW 11 20 6 11 1022.4 - 0.0
30/12:00pm 23.8 19.8 0.8 22 10.9 N 11 19 6 10 1022.9 1022.5 0.0
30/11:30am 22.9 18.4 -0.4 21 10.8 NNW 13 19 7 10 1023.3 - 0.0
30/11:00am 22.3 18.2 -0.5 22 10.5 NE 11 20 6 11 1023.6 - 0.0
30/10:30am 21.7 18.0 0.2 24 9.9 ENE 9 15 5 8 1024.1 - 0.0
30/10:00am 20.4 17.4 0.6 26 9.1 E 6 9 3 5 1024.5 - 0.0
30/09:30am 18.8 15.1 -0.3 27 8.5 E 9 11 5 6 1024.5 - 0.0
30/09:00am 17.3 14.0 0.2 31 7.6 E 7 9 4 5 1024.4 1024.0 0.0
30/08:30am 14.6 11.5 0.0 37 6.3 E 6 7 3 4 1024.1 - 0.0
30/08:00am 11.9 8.6 -1.0 41 5.3 E 6 7 3 4 1024.0 - 0.0
30/07:30am 10.0 6.8 -0.5 48 4.3 E 6 7 3 4 1023.8 - 0.0
30/07:00am 8.9 5.1 -0.5 51 3.8 E 9 11 5 6 1023.5 - 0.0
30/06:30am 9.5 5.8 0.0 51 3.9 E 9 11 5 6 1023.3 - 0.0
30/06:00am 9.5 5.8 -0.3 50 4.0 E 9 11 5 6 1023.2 1022.8 0.0
30/05:30am 8.1 3.9 -0.7 54 3.5 E 11 13 6 7 1023.1 - 0.0
30/05:00am 8.0 4.6 -0.5 55 3.4 E 7 9 4 5 1023.1 - 0.0
30/04:30am 8.0 4.8 -0.2 56 3.3 E 6 6 3 3 1022.9 - 0.0
30/04:00am 9.0 5.9 1.2 58 3.3 E 7 7 4 4 1022.8 - 0.0
30/03:30am 10.0 6.6 -0.5 48 4.3 E 7 9 4 5 1022.8 - 0.0
30/03:00am 10.1 6.8 -0.1 49 4.2 E 7 9 4 5 1022.7 1022.3 0.0
30/02:30am 10.7 7.4 0.2 48 4.4 E 7 9 4 5 1022.7 - 0.0
30/02:00am 13.2 8.2 -0.9 37 5.9 E 15 20 8 11 1022.7 - 0.0
30/01:30am 12.3 7.7 -0.7 40 5.4 E 13 17 7 9 1022.9 - 0.0
30/01:00am 14.6 9.2 -1.0 34 6.6 NE 17 22 9 12 1023.0 - 0.0
30/12:30am 14.2 9.6 -1.0 35 6.4 NNW 13 17 7 9 1023.2 - 0.0
30/12:00am 13.6 9.1 -0.3 38 5.9 NNW 13 17 7 9 1023.3 1022.9 0.0
 
Date/Time
WST
Temp
°C
App
Temp
°C
Dew
Point
Rel
Hum
%
Delta-T
°C
Wind Press
QNH
hPa
Press
MSL
hPa
Rain
since 9 am
mm
Dir
 
Spd
km/h
Gust
km/h
Spd
kts
Gust
kts
29/11:30pm 13.0 9.7 0.4 42 5.4 NNW 7 9 4 5 1023.6 - 0.0
29/11:00pm 13.4 9.8 0.7 42 5.5 NNW 9 11 5 6 1023.7 - 0.0
29/10:30pm 13.9 10.2 0.2 39 5.9 NW 9 11 5 6 1023.9 - 0.0
29/10:00pm 14.5 10.4 -0.2 36 6.3 NW 11 13 6 7 1024.1 - 0.0
29/09:30pm 14.8 11.1 -0.3 35 6.5 NW 9 11 5 6 1024.0 - 0.0
29/09:00pm 14.6 10.6 0.7 38 6.1 NW 11 13 6 7 1023.9 1023.5 0.0
29/08:30pm 14.7 10.8 1.2 40 6.0 NW 11 11 6 6 1023.9 - 0.0
29/08:00pm 16.2 11.7 -0.4 32 7.2 NW 13 15 7 8 1023.7 - 0.0

Other Formats:

Comma delimited format used in spreadsheet applications
http://www.bom.gov.au/fwo/IDW60801/IDW60801.94430.axf

JavaScript Object Notation format (JSON) in row-major order
http://www.bom.gov.au/fwo/IDW60801/IDW60801.94430.json